Time;durP1;ratioP1;P1;durP2;ratioP2;P2;SDS_P1;SDS_P2;PMS_P1;PMS_P2;Temp;Humidity;BMP_temperature;BMP_pressure;BME280_temperature;BME280_humidity;BME280_pressure;Samples;Min_cycle;Max_cycle;Signal;HPM_P1;HPM_P2
2022/09/07 00:01:38;;;;;;;28.88;4.65;;;21.20;99.90;;;;;;4923907;29;20047;-87
2022/09/07 00:04:04;;;;;;;22.88;4.20;;;21.20;99.90;;;;;;4923310;29;20050;-87
2022/09/07 00:06:29;;;;;;;27.85;3.70;;;21.20;99.90;;;;;;4906532;29;20300;-87
2022/09/07 00:08:55;;;;;;;26.83;5.05;;;21.10;99.90;;;;;;4904469;29;20091;-87
2022/09/07 00:11:21;;;;;;;22.83;3.85;;;21.10;99.90;;;;;;4926585;29;20144;-85
2022/09/07 00:13:48;;;;;;;19.55;3.30;;;21.20;99.90;;;;;;4926863;29;20269;-85
2022/09/07 00:16:23;;;;;;;22.52;4.00;;;21.20;99.90;;;;;;4926765;29;20020;-85
2022/09/07 00:18:49;;;;;;;22.08;3.85;;;21.20;99.90;;;;;;4921976;29;20024;-85
2022/09/07 00:21:16;;;;;;;25.52;3.60;;;21.20;99.90;;;;;;4926867;29;20031;-85
2022/09/07 00:23:42;;;;;;;24.05;3.83;;;21.20;99.90;;;;;;4926358;29;20032;-85
2022/09/07 00:26:11;;;;;;;25.13;4.40;;;21.20;99.90;;;;;;4926970;29;20020;-85
2022/09/07 00:28:38;;;;;;;24.60;3.70;;;21.10;99.90;;;;;;4920838;29;20092;-85
2022/09/07 00:31:09;;;;;;;22.25;3.50;;;21.10;99.90;;;;;;4920154;29;20032;-85
2022/09/07 00:33:35;;;;;;;23.42;3.75;;;21.20;99.90;;;;;;4926509;29;20056;-85
2022/09/07 00:36:01;;;;;;;16.38;3.15;;;21.20;99.90;;;;;;4926349;29;20024;-85
2022/09/07 00:38:27;;;;;;;24.77;3.50;;;21.20;99.90;;;;;;4919709;29;20020;-85
2022/09/07 00:40:53;;;;;;;26.15;3.78;;;21.10;99.90;;;;;;4926581;29;20051;-85
2022/09/07 00:44:04;;;;;;;15.13;3.58;;;21.10;99.90;;;;;;4926573;29;20082;-85
2022/09/07 00:46:33;;;;;;;23.63;4.40;;;21.20;99.90;;;;;;4924227;29;20261;-84
2022/09/07 00:49:11;;;;;;;25.00;4.35;;;21.10;99.90;;;;;;4926182;29;20047;-85
2022/09/07 00:51:48;;;;;;;21.52;4.47;;;21.10;99.90;;;;;;4920509;29;20025;-85
2022/09/07 00:54:22;;;;;;;21.50;3.88;;;21.00;99.90;;;;;;4926058;29;20017;-85
2022/09/07 00:56:51;;;;;;;22.27;3.78;;;21.00;99.90;;;;;;4926480;29;20038;-85
2022/09/07 00:59:21;;;;;;;22.77;4.60;;;21.00;99.90;;;;;;4926110;29;20353;-85
2022/09/07 01:01:47;;;;;;;25.73;4.57;;;21.00;99.90;;;;;;4926649;29;20059;-85
2022/09/07 01:04:14;;;;;;;22.58;4.28;;;21.00;99.90;;;;;;4925988;29;20043;-85
2022/09/07 01:06:42;;;;;;;21.70;4.32;;;21.00;99.90;;;;;;4925841;29;20096;-85
2022/09/07 01:09:21;;;;;;;22.10;4.05;;;21.10;99.90;;;;;;4909318;29;20024;-85
2022/09/07 01:11:50;;;;;;;24.45;4.18;;;21.10;99.90;;;;;;4926794;29;20031;-85
2022/09/07 01:14:20;;;;;;;24.95;4.25;;;21.10;99.90;;;;;;4926568;29;20116;-85
2022/09/07 01:17:10;;;;;;;22.33;4.15;;;21.10;99.90;;;;;;4925170;29;20042;-85
2022/09/07 01:19:38;;;;;;;20.02;4.10;;;21.10;99.90;;;;;;4924459;29;20036;-85
2022/09/07 01:22:35;;;;;;;25.58;4.50;;;21.10;99.90;;;;;;4925562;29;20036;-85
2022/09/07 01:25:34;;;;;;;26.42;5.13;;;21.10;99.90;;;;;;4925280;29;20030;-85
2022/09/07 01:28:11;;;;;;;21.10;4.22;;;21.10;99.90;;;;;;4924473;29;20346;-85
2022/09/07 01:30:40;;;;;;;27.65;3.55;;;21.20;99.90;;;;;;4924198;29;20125;-85
2022/09/07 01:33:47;;;;;;;21.13;4.05;;;21.10;99.90;;;;;;4925177;29;20020;-85
2022/09/07 01:36:33;;;;;;;19.38;3.80;;;21.10;99.90;;;;;;4921576;29;20044;-85
2022/09/07 01:39:02;;;;;;;26.08;3.38;;;21.10;99.90;;;;;;4925281;29;20024;-85
2022/09/07 01:41:40;;;;;;;15.65;3.58;;;21.10;99.90;;;;;;4924004;29;20102;-85
2022/09/07 01:44:25;;;;;;;26.13;4.07;;;21.10;99.90;;;;;;4925299;29;20042;-84
2022/09/07 01:47:16;;;;;;;14.77;3.28;;;21.10;99.90;;;;;;4902180;29;20032;-85
2022/09/07 01:49:48;;;;;;;18.88;3.45;;;21.20;99.90;;;;;;4924958;29;20031;-85
2022/09/07 01:52:27;;;;;;;26.08;4.60;;;21.20;99.90;;;;;;4925323;29;20260;-85
2022/09/07 01:55:20;;;;;;;15.70;2.75;;;21.20;99.90;;;;;;4901724;29;20265;-85
2022/09/07 01:58:09;;;;;;;19.35;3.17;;;21.20;99.90;;;;;;4917944;29;20039;-85
2022/09/07 02:00:38;;;;;;;25.38;3.97;;;21.10;99.90;;;;;;4911287;29;20044;-85
2022/09/07 02:03:13;;;;;;;23.35;4.45;;;21.20;99.90;;;;;;4924174;29;20032;-85
2022/09/07 02:05:45;;;;;;;23.38;4.13;;;21.20;99.90;;;;;;4907652;29;20208;-85
2022/09/07 02:08:17;;;;;;;20.67;3.70;;;21.20;99.90;;;;;;4902444;29;20115;-85
2022/09/07 02:10:54;;;;;;;19.77;3.72;;;21.20;99.90;;;;;;4924132;29;20020;-84
2022/09/07 02:13:59;;;;;;;16.85;2.90;;;21.20;99.90;;;;;;4924405;29;20432;-85
2022/09/07 02:16:27;;;;;;;21.35;3.80;;;21.20;99.90;;;;;;4924061;29;20091;-85
2022/09/07 02:18:58;;;;;;;25.20;3.85;;;21.30;99.90;;;;;;4923637;29;20039;-85
2022/09/07 02:21:31;;;;;;;17.55;2.90;;;21.20;99.90;;;;;;4906240;29;20327;-84
2022/09/07 02:24:03;;;;;;;16.25;2.95;;;21.10;99.90;;;;;;4922171;29;20036;-85
2022/09/07 02:26:29;;;;;;;19.67;3.42;;;21.00;99.90;;;;;;4907594;29;20028;-85
2022/09/07 02:28:56;;;;;;;18.02;3.30;;;21.00;99.90;;;;;;4924291;29;20050;-85
2022/09/07 02:31:21;;;;;;;21.38;3.50;;;21.00;99.90;;;;;;4924517;29;20020;-85
2022/09/07 02:33:47;;;;;;;20.58;3.28;;;21.00;99.90;;;;;;4924370;29;20364;-85
2022/09/07 02:36:16;;;;;;;18.70;3.45;;;21.00;99.90;;;;;;4925019;29;20027;-84
2022/09/07 02:38:42;;;;;;;20.92;3.80;;;21.00;99.90;;;;;;4924015;29;20043;-85
2022/09/07 02:41:35;;;;;;;23.70;4.18;;;21.00;99.90;;;;;;4922199;29;20024;-85
2022/09/07 02:44:04;;;;;;;22.20;3.38;;;21.00;99.90;;;;;;4923259;29;20020;-84
2022/09/07 02:47:07;;;;;;;22.02;3.28;;;21.00;99.90;;;;;;4923643;29;20040;-85
2022/09/07 02:49:59;;;;;;;25.17;3.50;;;21.00;99.90;;;;;;4906780;29;20381;-84
2022/09/07 02:52:31;;;;;;;26.35;4.05;;;21.00;99.90;;;;;;4923603;29;20277;-84
2022/09/07 02:55:18;;;;;;;18.60;3.78;;;21.00;99.90;;;;;;4916065;29;20024;-85
2022/09/07 02:58:01;;;;;;;25.35;4.25;;;21.00;99.90;;;;;;4923350;29;20342;-85
2022/09/07 03:00:32;;;;;;;19.45;3.42;;;21.00;99.90;;;;;;4923131;29;20024;-85
2022/09/07 03:03:16;;;;;;;29.40;4.70;;;21.00;99.90;;;;;;4923236;29;20032;-85
2022/09/07 03:05:45;;;;;;;21.85;4.05;;;21.00;99.90;;;;;;4901283;29;20100;-84
2022/09/07 03:08:18;;;;;;;22.65;3.75;;;21.00;99.90;;;;;;4923415;29;20024;-85
2022/09/07 03:10:44;;;;;;;21.25;4.13;;;21.00;99.90;;;;;;4905649;29;20278;-84
2022/09/07 03:13:20;;;;;;;26.45;4.25;;;21.00;99.90;;;;;;4921704;29;20308;-85
2022/09/07 03:15:46;;;;;;;20.30;4.10;;;21.00;99.90;;;;;;4922995;29;20039;-85
2022/09/07 03:18:11;;;;;;;23.50;4.00;;;21.00;99.90;;;;;;4923746;29;20075;-85
2022/09/07 03:20:37;;;;;;;19.02;3.63;;;21.00;99.90;;;;;;4924055;29;20028;-85
2022/09/07 03:23:03;;;;;;;23.75;3.75;;;21.00;99.90;;;;;;4923893;29;20068;-85
2022/09/07 03:25:28;;;;;;;23.80;4.18;;;21.00;99.90;;;;;;4923992;29;20025;-85
2022/09/07 03:27:54;;;;;;;18.67;3.55;;;21.00;99.90;;;;;;4924020;29;20040;-85
2022/09/07 03:30:20;;;;;;;17.92;3.70;;;21.00;99.90;;;;;;4923699;29;20119;-85
2022/09/07 03:32:46;;;;;;;25.75;4.18;;;21.00;99.90;;;;;;4924075;29;20032;-85
2022/09/07 03:35:12;;;;;;;22.95;5.15;;;21.00;99.90;;;;;;4923729;29;20039;-85
2022/09/07 03:37:38;;;;;;;24.23;4.10;;;21.00;99.90;;;;;;4923935;29;20051;-85
2022/09/07 03:40:06;;;;;;;20.33;3.83;;;21.00;99.90;;;;;;4916284;29;20066;-85
2022/09/07 03:42:32;;;;;;;17.40;3.20;;;21.00;99.90;;;;;;4924914;29;20032;-85
2022/09/07 03:44:58;;;;;;;24.70;3.80;;;21.00;99.90;;;;;;4928196;29;20236;-85
2022/09/07 03:47:23;;;;;;;23.80;4.00;;;21.00;99.90;;;;;;4906748;29;20039;-85
2022/09/07 03:49:50;;;;;;;22.42;4.25;;;21.00;99.90;;;;;;4925862;29;20119;-85
2022/09/07 03:52:16;;;;;;;22.95;3.92;;;21.00;99.90;;;;;;4927737;29;20035;-85
2022/09/07 03:54:42;;;;;;;21.75;4.05;;;21.00;99.90;;;;;;4927377;29;20031;-84
2022/09/07 03:57:08;;;;;;;23.38;4.00;;;21.10;99.90;;;;;;4927314;29;20039;-85
2022/09/07 03:59:34;;;;;;;23.63;3.97;;;21.10;99.90;;;;;;4907838;29;20025;-85
2022/09/07 04:02:00;;;;;;;14.88;2.92;;;21.10;99.90;;;;;;4926741;29;20036;-85
2022/09/07 04:04:25;;;;;;;17.35;3.35;;;21.10;99.90;;;;;;4926017;29;20016;-85
2022/09/07 04:06:51;;;;;;;21.95;3.35;;;21.10;99.90;;;;;;4926771;29;20080;-85
2022/09/07 04:09:17;;;;;;;22.45;3.47;;;21.00;99.90;;;;;;4926535;29;20052;-85
2022/09/07 04:11:42;;;;;;;21.48;3.88;;;21.10;99.90;;;;;;4926149;29;20040;-85
2022/09/07 04:14:09;;;;;;;16.20;3.10;;;21.00;99.90;;;;;;4925875;29;20039;-85
2022/09/07 04:16:35;;;;;;;20.25;3.50;;;21.00;99.90;;;;;;4926210;29;20119;-85
2022/09/07 04:19:01;;;;;;;22.05;3.38;;;21.00;99.90;;;;;;4925984;29;20313;-85
2022/09/07 04:21:29;;;;;;;25.02;3.60;;;21.00;99.90;;;;;;4926421;29;20015;-85
2022/09/07 04:23:55;;;;;;;22.77;4.00;;;21.00;99.90;;;;;;4926300;29;20040;-85
2022/09/07 04:26:29;;;;;;;15.80;3.38;;;21.00;99.90;;;;;;4925948;29;20032;-85
2022/09/07 04:28:55;;;;;;;17.95;3.92;;;21.00;99.90;;;;;;4926205;29;20131;-85
2022/09/07 04:31:22;;;;;;;18.42;2.95;;;21.00;99.90;;;;;;4925955;29;20036;-85
2022/09/07 04:33:49;;;;;;;21.45;3.20;;;21.00;99.90;;;;;;4926105;29;20050;-85
2022/09/07 04:36:17;;;;;;;22.58;3.72;;;21.00;99.90;;;;;;4927638;29;20218;-85
2022/09/07 04:38:42;;;;;;;20.88;4.30;;;21.00;99.90;;;;;;4926066;29;20023;-85
2022/09/07 04:41:11;;;;;;;23.63;3.88;;;21.00;99.90;;;;;;4925643;29;20036;-85
2022/09/07 04:43:39;;;;;;;18.88;3.22;;;21.00;99.90;;;;;;4925794;29;20051;-85
2022/09/07 04:46:25;;;;;;;21.52;3.40;;;21.00;99.90;;;;;;4926346;29;20016;-85
2022/09/07 04:48:59;;;;;;;17.73;3.22;;;21.00;99.90;;;;;;4925724;29;20051;-85
2022/09/07 04:51:27;;;;;;;21.08;4.80;;;21.00;99.90;;;;;;4927038;29;20048;-87
2022/09/07 04:53:55;;;;;;;22.17;3.75;;;21.00;99.90;;;;;;4904456;29;20099;-87
2022/09/07 04:56:21;;;;;;;26.73;3.45;;;21.10;99.90;;;;;;4926025;29;20031;-87
2022/09/07 04:58:47;;;;;;;19.80;3.97;;;21.10;99.90;;;;;;4925505;29;20028;-86
2022/09/07 05:01:16;;;;;;;20.95;3.80;;;21.00;99.90;;;;;;4925457;29;20024;-87
2022/09/07 05:03:42;;;;;;;19.40;3.35;;;21.00;99.90;;;;;;4909255;29;20040;-87
2022/09/07 05:06:09;;;;;;;23.27;3.80;;;21.00;99.90;;;;;;4926505;29;20315;-87
2022/09/07 05:08:36;;;;;;;23.75;3.83;;;21.10;99.90;;;;;;4920935;29;20483;-83
2022/09/07 05:11:02;;;;;;;20.70;3.20;;;21.10;99.90;;;;;;4915262;29;20067;-81
2022/09/07 05:13:31;;;;;;;16.42;3.75;;;21.10;99.90;;;;;;4917601;29;20249;-81
2022/09/07 05:15:58;;;;;;;22.23;3.67;;;21.10;99.90;;;;;;4921608;29;20028;-81
2022/09/07 05:18:24;;;;;;;18.80;3.40;;;21.10;99.90;;;;;;4917583;29;20188;-81
2022/09/07 05:20:49;;;;;;;23.42;3.80;;;21.10;99.90;;;;;;4915004;29;20032;-81
2022/09/07 05:23:15;;;;;;;26.30;4.57;;;21.10;99.90;;;;;;4915225;29;20044;-81
2022/09/07 05:25:42;;;;;;;24.73;4.25;;;21.10;99.90;;;;;;4914949;29;20127;-81
2022/09/07 05:28:08;;;;;;;21.05;4.25;;;21.10;99.90;;;;;;4914792;29;20156;-81
2022/09/07 05:30:34;;;;;;;22.98;3.33;;;21.10;99.90;;;;;;4915183;29;20115;-82
2022/09/07 05:33:00;;;;;;;25.95;4.20;;;21.10;99.90;;;;;;4914888;29;20412;-81
2022/09/07 05:35:26;;;;;;;21.42;3.15;;;21.10;99.90;;;;;;4914659;29;20027;-81
2022/09/07 05:37:52;;;;;;;21.70;3.53;;;21.10;99.90;;;;;;4914344;29;20028;-81
2022/09/07 05:40:17;;;;;;;20.60;4.25;;;21.10;99.90;;;;;;4914343;29;20028;-81
2022/09/07 05:42:43;;;;;;;22.98;3.50;;;21.10;99.90;;;;;;4924430;29;20028;-81
2022/09/07 05:45:09;;;;;;;25.00;4.45;;;21.10;99.90;;;;;;4925566;29;20304;-81
2022/09/07 05:47:36;;;;;;;19.77;3.58;;;21.10;99.90;;;;;;4925021;29;20293;-81
2022/09/07 05:50:04;;;;;;;22.80;3.65;;;21.10;99.90;;;;;;4924964;29;20332;-82
2022/09/07 05:52:29;;;;;;;27.88;4.38;;;21.10;99.90;;;;;;4903470;29;20019;-81
2022/09/07 05:54:55;;;;;;;19.52;4.03;;;21.10;99.90;;;;;;4925195;29;20064;-81
2022/09/07 05:57:20;;;;;;;25.17;4.38;;;21.10;99.90;;;;;;4925651;29;20057;-80
2022/09/07 05:59:46;;;;;;;24.42;4.35;;;21.10;99.90;;;;;;4925202;29;20304;-80
2022/09/07 06:02:13;;;;;;;22.45;3.40;;;21.00;99.90;;;;;;4924754;29;20032;-79
2022/09/07 06:04:39;;;;;;;23.60;4.38;;;21.00;99.90;;;;;;4925440;29;20220;-80
2022/09/07 06:07:05;;;;;;;24.27;3.53;;;21.00;99.90;;;;;;4925072;29;20079;-80
2022/09/07 06:09:30;;;;;;;26.27;4.28;;;21.00;99.90;;;;;;4924919;29;20039;-80
2022/09/07 06:11:56;;;;;;;18.50;3.92;;;21.00;99.90;;;;;;4925025;29;20028;-80
2022/09/07 06:14:21;;;;;;;13.70;2.13;;;21.00;99.90;;;;;;4924817;29;20048;-80
2022/09/07 06:16:47;;;;;;;15.93;2.22;;;20.90;99.90;;;;;;4905333;29;20115;-80
2022/09/07 06:19:13;;;;;;;11.32;2.40;;;20.80;99.90;;;;;;4924975;29;20042;-80
2022/09/07 06:21:38;;;;;;;15.25;2.80;;;20.80;99.90;;;;;;4924561;29;20094;-80
2022/09/07 06:24:05;;;;;;;10.23;2.13;;;20.70;99.90;;;;;;4906745;29;20032;-80
2022/09/07 06:26:34;;;;;;;13.77;2.90;;;20.70;99.90;;;;;;4921615;29;20022;-80
2022/09/07 06:29:02;;;;;;;16.38;2.92;;;20.70;99.90;;;;;;4913772;29;20062;-79
2022/09/07 06:31:27;;;;;;;15.35;3.00;;;20.80;99.90;;;;;;4913740;29;20205;-79
2022/09/07 06:33:54;;;;;;;15.98;3.40;;;20.80;99.90;;;;;;4912242;29;20228;-79
2022/09/07 06:36:26;;;;;;;22.52;4.10;;;20.80;99.90;;;;;;4913645;29;20021;-79
2022/09/07 06:38:54;;;;;;;19.95;3.40;;;20.70;99.90;;;;;;4913395;29;20028;-79
2022/09/07 06:41:22;;;;;;;20.80;3.35;;;20.50;99.90;;;;;;4913961;29;20036;-79
2022/09/07 06:43:48;;;;;;;19.27;3.67;;;20.10;99.90;;;;;;4913554;29;20457;-78
2022/09/07 06:46:14;;;;;;;23.00;4.07;;;19.90;99.90;;;;;;4913585;29;20051;-78
2022/09/07 06:48:40;;;;;;;21.98;3.88;;;19.60;99.90;;;;;;4913652;29;20032;-79
2022/09/07 06:51:13;;;;;;;22.20;3.80;;;19.50;99.90;;;;;;4913667;29;20021;-79
2022/09/07 06:53:38;;;;;;;22.65;4.07;;;19.40;99.90;;;;;;4913718;29;20028;-79
2022/09/07 06:56:06;;;;;;;28.80;4.15;;;19.30;99.90;;;;;;4913128;29;20405;-79
2022/09/07 06:58:32;;;;;;;25.65;4.47;;;19.20;99.90;;;;;;4913455;29;20028;-79
2022/09/07 07:00:58;;;;;;;25.90;4.32;;;19.20;99.90;;;;;;4913307;29;20382;-80
2022/09/07 07:03:23;;;;;;;23.23;4.47;;;19.20;99.90;;;;;;4913339;29;20040;-79
2022/09/07 07:05:53;;;;;;;22.33;3.45;;;19.10;99.90;;;;;;4913684;29;20024;-79
2022/09/07 07:08:21;;;;;;;20.98;3.00;;;19.10;99.90;;;;;;4913444;29;20104;-80
2022/09/07 07:10:47;;;;;;;24.23;4.30;;;19.00;99.90;;;;;;4892158;29;20036;-80
2022/09/07 07:13:13;;;;;;;19.17;3.63;;;19.10;99.90;;;;;;4913330;29;20111;-80
2022/09/07 07:15:39;;;;;;;17.67;3.08;;;19.10;99.90;;;;;;4913268;29;20171;-79
2022/09/07 07:18:05;;;;;;;16.30;2.80;;;19.00;99.90;;;;;;4915194;29;20529;-80
2022/09/07 07:20:30;;;;;;;18.85;2.97;;;18.80;99.90;;;;;;4917143;29;20091;-80
2022/09/07 07:22:56;;;;;;;22.42;4.28;;;18.80;99.90;;;;;;4917151;29;20044;-79
2022/09/07 07:25:22;;;;;;;17.17;3.10;;;18.80;99.90;;;;;;4917200;29;20478;-80
2022/09/07 07:27:48;;;;;;;19.17;2.83;;;18.70;99.90;;;;;;4917125;29;20115;-80
2022/09/07 07:30:15;;;;;;;17.70;3.20;;;18.70;99.90;;;;;;4916882;29;20059;-80
2022/09/07 07:32:42;;;;;;;23.45;3.83;;;18.70;99.90;;;;;;4917383;29;20080;-82
2022/09/07 07:35:08;;;;;;;18.48;3.22;;;18.70;99.90;;;;;;4916863;29;20039;-82
2022/09/07 07:37:35;;;;;;;15.90;3.17;;;18.80;99.90;;;;;;4917354;29;20035;-82
2022/09/07 07:40:04;;;;;;;18.88;3.50;;;18.70;99.90;;;;;;4909289;29;20028;-82
2022/09/07 07:42:30;;;;;;;17.95;3.58;;;18.70;99.90;;;;;;4916447;29;20040;-81
2022/09/07 07:44:55;;;;;;;19.60;4.20;;;18.70;99.90;;;;;;4916712;29;20110;-80
2022/09/07 07:47:21;;;;;;;19.77;3.85;;;18.70;99.90;;;;;;4916831;29;20458;-80
2022/09/07 07:49:47;;;;;;;23.13;5.28;;;18.60;99.90;;;;;;4916993;29;20445;-80
2022/09/07 07:52:15;;;;;;;17.05;3.47;;;18.50;99.90;;;;;;4916604;29;20092;-81
2022/09/07 07:54:41;;;;;;;23.40;4.50;;;18.30;99.90;;;;;;4916449;29;20093;-81
2022/09/07 07:57:07;;;;;;;16.88;3.97;;;18.30;99.90;;;;;;4916507;29;20032;-78
2022/09/07 07:59:33;;;;;;;22.20;3.75;;;18.20;99.90;;;;;;4916304;29;20063;-78
2022/09/07 08:02:03;;;;;;;18.40;4.18;;;18.20;99.90;;;;;;4916177;29;20408;-78
2022/09/07 08:04:32;;;;;;;19.92;4.40;;;18.20;99.90;;;;;;4916942;29;20398;-78
2022/09/07 08:06:58;;;;;;;17.45;3.97;;;18.20;99.90;;;;;;4916358;29;20033;-79
2022/09/07 08:09:24;;;;;;;20.05;3.55;;;18.30;99.90;;;;;;4916417;29;20040;-79
2022/09/07 08:11:50;;;;;;;15.63;3.28;;;18.30;99.90;;;;;;4916267;29;20111;-78
2022/09/07 08:14:17;;;;;;;15.50;3.17;;;18.40;99.90;;;;;;4916172;29;20040;-79
2022/09/07 08:16:43;;;;;;;17.27;4.32;;;18.40;99.90;;;;;;4916208;29;20020;-79
2022/09/07 08:19:14;;;;;;;17.25;3.45;;;18.50;99.90;;;;;;4916032;29;20071;-79
2022/09/07 08:21:39;;;;;;;17.10;4.65;;;18.50;99.90;;;;;;4915899;29;20378;-80
2022/09/07 08:24:05;;;;;;;22.95;4.25;;;18.50;99.90;;;;;;4915744;29;20114;-80
2022/09/07 08:26:31;;;;;;;21.20;3.60;;;18.60;99.90;;;;;;4915916;29;20052;-80
2022/09/07 08:28:57;;;;;;;19.17;3.50;;;18.80;99.90;;;;;;4915792;29;20052;-80
2022/09/07 08:31:23;;;;;;;16.23;3.38;;;18.90;99.90;;;;;;4916050;29;20493;-80
2022/09/07 08:33:49;;;;;;;17.90;3.25;;;18.80;99.90;;;;;;4916039;29;20024;-80
2022/09/07 08:36:18;;;;;;;16.05;3.60;;;18.80;99.90;;;;;;4916049;29;20035;-80
2022/09/07 08:38:44;;;;;;;16.88;2.97;;;18.70;99.90;;;;;;4915814;29;20493;-80
2022/09/07 08:41:25;;;;;;;13.15;2.95;;;18.80;99.90;;;;;;4915602;29;20263;-80
2022/09/07 08:44:00;;;;;;;14.90;2.50;;;18.80;99.90;;;;;;4915549;29;20095;-80
2022/09/07 08:46:37;;;;;;;12.10;2.17;;;19.00;99.90;;;;;;4915608;29;20028;-80
2022/09/07 08:49:12;;;;;;;10.85;2.45;;;19.10;99.90;;;;;;4915636;29;20397;-80
2022/09/07 08:51:49;;;;;;;11.90;2.40;;;19.10;99.90;;;;;;4910435;29;20245;-80
2022/09/07 08:54:16;;;;;;;10.73;2.53;;;19.10;99.90;;;;;;4915527;29;20062;-80
2022/09/07 08:56:49;;;;;;;12.07;2.88;;;19.10;99.90;;;;;;4915669;29;20048;-80
2022/09/07 08:59:25;;;;;;;13.10;2.63;;;19.00;99.90;;;;;;4915325;29;20099;-80
2022/09/07 09:01:51;;;;;;;17.38;2.63;;;18.90;99.90;;;;;;4915274;29;20035;-80
2022/09/07 09:04:25;;;;;;;13.23;3.00;;;19.00;99.90;;;;;;4915337;29;20044;-80
2022/09/07 09:07:13;;;;;;;8.50;1.77;;;19.00;99.90;;;;;;4915478;29;20387;-80
2022/09/07 09:10:04;;;;;;;7.05;1.70;;;19.00;99.90;;;;;;4915142;29;20568;-79
2022/09/07 09:12:32;;;;;;;9.10;2.00;;;19.00;99.90;;;;;;4915283;29;20035;-79
2022/09/07 09:15:16;;;;;;;9.82;1.90;;;18.90;99.90;;;;;;4915393;29;20019;-80
2022/09/07 09:17:55;;;;;;;9.50;1.90;;;19.00;99.90;;;;;;4915115;29;20024;-80
2022/09/07 09:20:48;;;;;;;10.63;2.60;;;19.00;99.90;;;;;;4909272;29;20040;-80
2022/09/07 09:23:16;;;;;;;15.93;2.40;;;19.00;99.90;;;;;;4914723;29;20027;-80
2022/09/07 09:25:53;;;;;;;15.18;2.22;;;19.10;99.90;;;;;;4914806;29;20030;-80
2022/09/07 09:28:19;;;;;;;11.23;2.08;;;19.20;99.90;;;;;;4914768;29;20048;-80
2022/09/07 09:30:46;;;;;;;13.43;1.98;;;19.20;99.90;;;;;;4914923;29;20075;-80
2022/09/07 09:33:18;;;;;;;13.93;2.13;;;19.20;99.90;;;;;;4914742;29;20020;-80
2022/09/07 09:35:49;;;;;;;12.75;2.33;;;19.20;99.90;;;;;;4915043;29;20075;-80
2022/09/07 09:38:29;;;;;;;16.83;2.35;;;19.10;99.90;;;;;;4914619;29;20031;-80
2022/09/07 09:40:56;;;;;;;11.43;2.45;;;19.00;99.90;;;;;;4908581;29;20031;-80
2022/09/07 09:43:50;;;;;;;9.95;2.00;;;19.00;99.90;;;;;;4892753;29;20382;-80
2022/09/07 09:46:26;;;;;;;11.40;2.80;;;19.10;99.90;;;;;;4914147;29;20417;-80
2022/09/07 09:49:04;;;;;;;13.80;2.53;;;19.20;99.90;;;;;;4914658;29;20024;-80
2022/09/07 09:51:41;;;;;;;8.88;2.08;;;19.30;99.90;;;;;;4908947;29;20032;-80
2022/09/07 09:54:40;;;;;;;12.93;2.92;;;19.50;99.90;;;;;;4914423;29;20032;-80
2022/09/07 09:57:16;;;;;;;11.30;2.35;;;19.70;99.90;;;;;;4859541;29;20040;-80
2022/09/07 09:59:41;;;;;;;11.60;2.20;;;19.90;99.90;;;;;;4914423;29;20064;-80
2022/09/07 10:02:37;;;;;;;13.48;2.47;;;19.80;99.90;;;;;;4915025;29;20450;-80
2022/09/07 10:05:20;;;;;;;7.63;2.22;;;19.70;99.90;;;;;;4894140;29;20032;-80
2022/09/07 10:07:51;;;;;;;15.70;2.42;;;19.70;99.90;;;;;;4914051;29;20123;-80
2022/09/07 10:10:17;;;;;;;10.98;2.33;;;19.60;99.90;;;;;;4914046;29;20046;-80
2022/09/07 10:12:45;;;;;;;17.40;3.58;;;19.50;99.90;;;;;;4914258;29;20519;-80
2022/09/07 10:15:24;;;;;;;12.80;2.90;;;19.50;99.90;;;;;;4914060;29;20115;-80
2022/09/07 10:17:50;;;;;;;13.40;2.80;;;19.50;99.90;;;;;;4894940;29;20029;-80
2022/09/07 10:20:16;;;;;;;14.60;2.85;;;19.50;99.90;;;;;;4895824;29;20024;-80
2022/09/07 10:22:57;;;;;;;14.50;3.03;;;19.50;99.90;;;;;;4913606;29;20123;-80
2022/09/07 10:25:40;;;;;;;15.15;2.80;;;19.40;99.90;;;;;;4909573;29;20438;-80
2022/09/07 10:28:10;;;;;;;14.77;3.75;;;19.30;99.90;;;;;;4914016;29;20115;-80
2022/09/07 10:31:13;;;;;;;12.90;3.53;;;19.20;99.90;;;;;;4915204;29;20020;-81
2022/09/07 10:33:47;;;;;;;20.15;3.30;;;19.10;99.90;;;;;;4915492;29;20028;-80
2022/09/07 10:36:37;;;;;;;12.95;2.92;;;19.00;99.90;;;;;;4912529;29;20489;-80
2022/09/07 10:39:07;;;;;;;15.32;3.35;;;19.10;99.90;;;;;;4887430;29;20035;-80
2022/09/07 10:41:48;;;;;;;15.35;2.97;;;19.10;99.90;;;;;;4913021;29;20205;-80
2022/09/07 10:44:41;;;;;;;15.75;2.78;;;19.10;99.90;;;;;;4916580;29;20200;-81
2022/09/07 10:47:21;;;;;;;14.90;3.30;;;19.00;99.90;;;;;;4918796;29;20355;-80
2022/09/07 10:49:56;;;;;;;17.90;2.97;;;19.30;99.90;;;;;;4917139;29;20035;-80
2022/09/07 10:52:42;;;;;;;16.33;2.95;;;19.60;99.90;;;;;;4916937;29;20020;-81
2022/09/07 10:55:19;;;;;;;17.15;3.05;;;19.90;99.90;;;;;;4915220;29;20544;-81
2022/09/07 10:57:56;;;;;;;12.68;2.67;;;20.20;99.90;;;;;;4913399;29;20068;-80
2022/09/07 11:00:22;;;;;;;11.10;2.30;;;20.30;99.90;;;;;;4913900;29;20367;-80
2022/09/07 11:03:09;;;;;;;16.75;3.10;;;20.30;99.90;;;;;;4908769;29;20052;-80
2022/09/07 11:05:57;;;;;;;10.55;2.60;;;20.30;99.90;;;;;;4908108;29;20039;-81
2022/09/07 11:08:26;;;;;;;15.63;2.80;;;20.30;99.90;;;;;;4915140;29;20050;-81
2022/09/07 11:11:03;;;;;;;15.25;2.67;;;20.30;99.90;;;;;;4921532;29;20152;-80
2022/09/07 11:13:33;;;;;;;16.83;3.20;;;20.40;99.90;;;;;;4924221;29;20028;-80
2022/09/07 11:16:06;;;;;;;10.40;2.50;;;20.60;99.90;;;;;;4923193;29;20016;-80
2022/09/07 11:18:35;;;;;;;16.35;2.63;;;20.60;99.90;;;;;;4924092;29;20099;-81
2022/09/07 11:21:03;;;;;;;14.32;2.63;;;20.70;99.90;;;;;;4924154;29;20019;-80
2022/09/07 11:23:40;;;;;;;11.15;2.83;;;20.70;99.90;;;;;;4924167;29;20056;-84
2022/09/07 11:26:16;;;;;;;11.70;2.65;;;20.60;99.90;;;;;;4914629;29;20504;-81
2022/09/07 11:28:59;;;;;;;13.15;2.25;;;20.60;99.90;;;;;;4913328;29;20621;-82
2022/09/07 11:31:44;;;;;;;11.60;2.22;;;20.40;99.90;;;;;;4913262;29;20038;-81
2022/09/07 11:34:22;;;;;;;9.77;2.35;;;20.30;99.90;;;;;;4914979;29;20035;-81
2022/09/07 11:37:12;;;;;;;11.65;2.50;;;20.40;99.90;;;;;;4922937;29;20055;-82
2022/09/07 11:39:45;;;;;;;12.20;2.13;;;20.40;99.90;;;;;;4910916;29;20039;-81
2022/09/07 11:42:23;;;;;;;7.22;1.73;;;20.40;99.90;;;;;;4924328;29;20264;-81
2022/09/07 11:45:11;;;;;;;9.35;2.45;;;20.10;99.90;;;;;;4924435;29;20392;-82
2022/09/07 11:47:51;;;;;;;12.70;2.03;;;19.90;99.90;;;;;;4899061;29;20031;-81
2022/09/07 11:50:20;;;;;;;10.38;2.25;;;19.80;99.90;;;;;;4924396;29;20032;-82
2022/09/07 11:53:01;;;;;;;10.90;2.20;;;19.70;99.90;;;;;;4917107;29;20036;-81
2022/09/07 11:55:32;;;;;;;8.13;2.05;;;19.70;99.90;;;;;;4922053;29;20026;-81
2022/09/07 11:58:26;;;;;;;9.50;2.08;;;19.80;99.90;;;;;;4922989;29;20050;-81
2022/09/07 12:01:13;;;;;;;8.57;2.22;;;19.60;99.90;;;;;;4924275;29;20229;-82
2022/09/07 12:04:33;;;;;;;7.15;1.73;;;19.60;99.90;;;;;;4908237;29;20043;-81
2022/09/07 12:07:23;;;;;;;6.18;1.35;;;19.50;99.90;;;;;;4887882;29;20127;-82
2022/09/07 12:10:13;;;;;;;7.10;1.70;;;19.30;99.90;;;;;;4925890;29;20024;-82
2022/09/07 12:12:48;;;;;;;5.72;1.50;;;19.40;99.90;;;;;;4906298;29;20071;-82
2022/09/07 12:15:41;;;;;;;8.73;1.80;;;19.40;99.90;;;;;;4925354;29;20039;-82
2022/09/07 12:18:20;;;;;;;6.18;1.75;;;19.40;99.90;;;;;;4924932;29;20075;-82
2022/09/07 12:20:47;;;;;;;10.95;2.05;;;19.30;99.90;;;;;;4927548;29;20024;-82
2022/09/07 12:23:16;;;;;;;7.43;1.90;;;19.20;99.90;;;;;;4927212;29;20224;-81
2022/09/07 12:25:47;;;;;;;10.57;2.70;;;19.10;99.90;;;;;;4927373;29;20228;-82
2022/09/07 12:28:37;;;;;;;8.70;2.45;;;19.10;99.90;;;;;;4910370;29;20251;-83
2022/09/07 12:31:05;;;;;;;8.82;2.00;;;19.00;99.90;;;;;;4919654;29;20040;-82
2022/09/07 12:33:34;;;;;;;8.85;2.60;;;19.10;99.90;;;;;;4926836;29;20031;-79
2022/09/07 12:36:01;;;;;;;9.20;2.20;;;19.00;99.90;;;;;;4921023;29;20024;-79
2022/09/07 12:38:29;;;;;;;8.40;2.20;;;19.00;99.90;;;;;;4921231;29;20107;-81
2022/09/07 12:41:23;;;;;;;17.38;2.97;;;19.10;99.90;;;;;;4921274;29;20019;-80
2022/09/07 12:43:49;;;;;;;16.75;3.00;;;19.10;99.90;;;;;;4923876;29;20338;-78
2022/09/07 12:46:39;;;;;;;12.63;2.40;;;19.20;99.90;;;;;;4905792;29;20028;-78
2022/09/07 12:49:13;;;;;;;12.82;3.13;;;19.40;99.90;;;;;;4926198;29;20028;-77
2022/09/07 12:51:39;;;;;;;14.55;2.10;;;19.30;99.90;;;;;;4920708;29;20029;-78
2022/09/07 12:54:32;;;;;;;10.95;2.33;;;19.30;99.90;;;;;;4926298;29;20039;-78
2022/09/07 12:57:12;;;;;;;9.80;2.05;;;19.20;99.90;;;;;;4913109;29;20060;-79
2022/09/07 13:00:01;;;;;;;12.73;2.17;;;19.40;99.90;;;;;;4915724;29;20032;-78
2022/09/07 13:03:01;;;;;;;8.75;2.20;;;19.40;99.90;;;;;;4915392;29;20565;-77
2022/09/07 13:06:01;;;;;;;12.32;1.67;;;19.40;99.90;;;;;;4915630;29;20025;-79